Time;durP1;ratioP1;P1;durP2;ratioP2;P2;SDS_P1;SDS_P2;PMS_P1;PMS_P2;Temp;Humidity;BMP_temperature;BMP_pressure;BME280_temperature;BME280_humidity;BME280_pressure;Samples;Min_cycle;Max_cycle;Signal;HPM_P1;HPM_P2
2022/06/09 00:02:06;;;;;;;14.82;4.88;;;;;;;12.96;100.00;100881.47;5183114;28;20033;-63
2022/06/09 00:04:39;;;;;;;6.65;6.03;;;;;;;12.99;100.00;100887.16;5181934;28;20029;-63
2022/06/09 00:07:21;;;;;;;8.35;5.28;;;;;;;12.94;100.00;100889.06;5182967;28;20111;-62
2022/06/09 00:10:02;;;;;;;12.23;6.05;;;;;;;12.91;100.00;100893.13;5183526;28;20036;-61
2022/06/09 00:12:33;;;;;;;7.88;5.30;;;;;;;12.92;100.00;100896.66;5182961;28;20076;-64
2022/06/09 00:15:07;;;;;;;6.20;4.78;;;;;;;12.89;100.00;100905.31;5182703;28;20036;-64
2022/06/09 00:17:37;;;;;;;8.63;5.15;;;;;;;12.85;100.00;100902.31;5183365;28;20092;-64
2022/06/09 00:20:11;;;;;;;10.45;5.45;;;;;;;12.80;100.00;100900.41;5183048;28;20478;-64
2022/06/09 00:22:42;;;;;;;10.30;6.22;;;;;;;12.85;100.00;100897.72;5182572;28;20124;-64
2022/06/09 00:25:13;;;;;;;13.02;5.75;;;;;;;12.89;100.00;100897.19;5182134;28;20128;-64
2022/06/09 00:27:43;;;;;;;5.45;4.97;;;;;;;12.92;100.00;100905.59;5182619;28;20482;-64
2022/06/09 00:30:16;;;;;;;10.23;7.35;;;;;;;12.93;100.00;100909.13;5180844;28;20105;-63
2022/06/09 00:32:47;;;;;;;14.98;7.43;;;;;;;13.00;100.00;100910.44;5181128;28;20040;-64
2022/06/09 00:35:17;;;;;;;7.28;4.85;;;;;;;13.10;100.00;100912.34;5182498;28;20022;-63
2022/06/09 00:37:48;;;;;;;15.73;5.13;;;;;;;13.14;100.00;100908.84;5182654;28;20054;-63
2022/06/09 00:40:19;;;;;;;10.02;7.07;;;;;;;13.13;100.00;100909.13;5186065;28;20522;-64
2022/06/09 00:42:50;;;;;;;10.63;6.45;;;;;;;13.05;100.00;100915.06;5184884;28;20029;-63
2022/06/09 00:45:46;;;;;;;16.05;6.90;;;;;;;13.03;100.00;100919.94;5185569;28;20029;-64
2022/06/09 00:48:23;;;;;;;14.25;5.68;;;;;;;13.01;100.00;100922.09;5185919;28;20029;-64
2022/06/09 00:51:01;;;;;;;12.30;6.88;;;;;;;12.99;100.00;100918.88;5185605;28;20029;-64
2022/06/09 00:53:36;;;;;;;14.52;5.55;;;;;;;12.97;100.00;100915.63;5185687;28;20022;-64
2022/06/09 00:56:10;;;;;;;7.38;5.38;;;;;;;12.98;100.00;100914.53;5187165;28;20390;-64
2022/06/09 00:58:44;;;;;;;8.43;6.18;;;;;;;13.00;100.00;100915.06;5185851;28;20041;-64
2022/06/09 01:01:17;;;;;;;17.58;9.60;;;;;;;12.97;100.00;100921.88;5185785;28;20052;-64
2022/06/09 01:03:59;;;;;;;9.30;6.88;;;;;;;12.97;100.00;100927.28;5185283;28;20029;-64
2022/06/09 01:06:35;;;;;;;12.30;5.80;;;;;;;12.98;100.00;100919.97;5185512;28;20033;-64
2022/06/09 01:09:26;;;;;;;15.98;5.55;;;;;;;12.95;100.00;100926.75;5185857;28;20099;-63
2022/06/09 01:11:58;;;;;;;10.52;5.55;;;;;;;12.95;100.00;100926.75;5202256;28;20112;-64
2022/06/09 01:14:32;;;;;;;14.18;6.50;;;;;;;12.88;100.00;100922.66;5185228;28;20022;-64
2022/06/09 01:17:25;;;;;;;12.98;6.55;;;;;;;12.94;100.00;100933.25;5184982;28;20486;-64
2022/06/09 01:20:39;;;;;;;10.18;6.22;;;;;;;12.69;100.00;100903.41;5185283;28;20026;-64
2022/06/09 01:23:41;;;;;;;14.02;8.38;;;;;;;12.91;100.00;100941.91;5188301;28;20098;-63
2022/06/09 01:26:30;;;;;;;14.82;7.85;;;;;;;12.87;100.00;100948.94;5185361;28;20026;-61
2022/06/09 01:29:24;;;;;;;13.93;6.35;;;;;;;12.79;100.00;100947.56;5185274;28;20038;-64
2022/06/09 01:32:07;;;;;;;14.05;7.70;;;;;;;12.77;100.00;100936.19;5185011;28;20048;-63
2022/06/09 01:35:04;;;;;;;13.93;6.28;;;;;;;12.74;100.00;100952.97;5184938;28;20061;-64
2022/06/09 01:37:42;;;;;;;7.22;4.40;;;;;;;12.70;100.00;100949.19;5184963;28;20067;-64
2022/06/09 01:40:16;;;;;;;13.70;6.15;;;;;;;12.56;100.00;100937.22;5185390;28;20360;-64
2022/06/09 01:42:50;;;;;;;10.80;6.47;;;;;;;12.60;100.00;100946.47;5183834;28;20033;-63
2022/06/09 01:45:23;;;;;;;16.10;7.18;;;;;;;12.56;100.00;100950.78;5184558;28;20397;-64
2022/06/09 01:48:03;;;;;;;14.80;7.15;;;;;;;12.51;100.00;100948.06;5184912;28;20107;-63
2022/06/09 01:50:45;;;;;;;14.50;8.43;;;;;;;12.46;100.00;100954.25;5184643;28;20454;-63
2022/06/09 01:53:27;;;;;;;12.57;8.73;;;;;;;12.36;100.00;100959.66;5186628;28;20554;-63
2022/06/09 01:56:03;;;;;;;19.20;8.85;;;;;;;12.31;100.00;100958.81;5185175;28;20026;-62
2022/06/09 01:58:45;;;;;;;23.15;8.10;;;;;;;12.18;100.00;100944.69;5185385;28;20483;-64
2022/06/09 02:01:19;;;;;;;16.83;8.05;;;;;;;12.22;100.00;100963.09;5184943;28;20406;-64
2022/06/09 02:03:54;;;;;;;26.42;8.18;;;;;;;12.17;100.00;100964.72;5184245;28;20018;-64
2022/06/09 02:06:24;;;;;;;17.20;6.55;;;;;;;12.13;100.00;100962.78;5185150;28;20049;-62
2022/06/09 02:08:55;;;;;;;23.40;8.57;;;;;;;12.12;100.00;100955.78;5185130;28;20036;-63
2022/06/09 02:11:27;;;;;;;20.77;7.85;;;;;;;12.07;100.00;100966.56;5186164;28;20478;-63
2022/06/09 02:13:58;;;;;;;12.95;5.45;;;;;;;12.12;100.00;100966.59;5184802;28;20558;-63
2022/06/09 02:16:29;;;;;;;12.75;8.10;;;;;;;11.95;100.00;100950.53;5185030;28;20120;-61
2022/06/09 02:18:59;;;;;;;17.30;7.70;;;;;;;12.02;100.00;100974.66;5184825;28;20040;-62
2022/06/09 02:21:33;;;;;;;19.38;7.32;;;;;;;11.98;100.00;100979.78;5185838;28;20025;-63
2022/06/09 02:24:04;;;;;;;13.43;6.53;;;;;;;11.79;100.00;100955.06;5211441;23;20067;-62
2022/06/09 02:26:35;;;;;;;21.85;9.02;;;;;;;11.89;100.00;100983.22;5198284;28;20040;-62
2022/06/09 02:29:06;;;;;;;15.10;6.60;;;;;;;11.93;100.00;100997.88;5205408;28;20033;-63
2022/06/09 02:31:36;;;;;;;11.40;8.00;;;;;;;11.76;100.00;100966.41;5205188;28;20041;-61
2022/06/09 02:34:07;;;;;;;18.95;7.70;;;;;;;11.91;100.00;100981.91;5204915;28;20025;-62
2022/06/09 02:36:37;;;;;;;29.08;9.98;;;;;;;12.01;100.00;101000.09;5205645;28;20113;-62
2022/06/09 02:39:08;;;;;;;17.90;6.63;;;;;;;11.94;100.00;100999.50;5205175;28;20079;-62
2022/06/09 02:41:39;;;;;;;9.95;6.15;;;;;;;11.85;100.00;100993.75;5205048;28;20067;-62
2022/06/09 02:44:10;;;;;;;24.67;7.53;;;;;;;11.87;100.00;101010.56;5204279;28;20030;-62
2022/06/09 02:46:40;;;;;;;10.95;6.70;;;;;;;11.90;100.00;101006.50;5204689;28;20026;-62
2022/06/09 02:49:10;;;;;;;19.75;7.95;;;;;;;11.88;100.00;101006.78;5204783;28;20029;-61
2022/06/09 02:51:41;;;;;;;11.05;9.88;;;;;;;11.86;100.00;101013.53;5203556;28;20056;-62
2022/06/09 02:54:12;;;;;;;11.57;6.70;;;;;;;11.79;100.00;101013.78;5204568;28;20037;-62
2022/06/09 02:56:42;;;;;;;12.07;6.95;;;;;;;11.78;100.00;101014.84;5203712;28;20056;-62
2022/06/09 02:59:13;;;;;;;17.48;7.82;;;;;;;11.78;100.00;101021.06;5204747;28;20033;-62
2022/06/09 03:01:44;;;;;;;18.40;8.50;;;;;;;11.76;100.00;101030.50;5220427;28;20473;-62
2022/06/09 03:04:14;;;;;;;20.33;7.75;;;;;;;11.74;100.00;101032.63;5204256;28;20025;-61
2022/06/09 03:06:45;;;;;;;20.67;8.00;;;;;;;11.72;100.00;101024.78;5205446;28;20032;-61
2022/06/09 03:09:16;;;;;;;8.43;6.53;;;;;;;11.76;100.00;101027.78;5221472;28;20036;-60
2022/06/09 03:11:46;;;;;;;8.40;6.10;;;;;;;11.70;100.00;101026.09;5204470;28;20057;-60
2022/06/09 03:14:17;;;;;;;8.00;7.22;;;;;;;11.69;100.00;101029.88;5204380;28;20029;-61
2022/06/09 03:16:47;;;;;;;19.08;8.90;;;;;;;11.72;100.00;101027.47;5205888;28;20442;-60
2022/06/09 03:19:18;;;;;;;21.70;8.70;;;;;;;11.73;100.00;101039.94;5204726;28;20385;-61
2022/06/09 03:21:49;;;;;;;20.52;8.82;;;;;;;11.66;100.00;101030.41;5204201;28;20059;-65
2022/06/09 03:24:19;;;;;;;14.40;8.07;;;;;;;11.58;100.00;101022.75;5204002;28;20464;-63
2022/06/09 03:26:50;;;;;;;17.90;6.75;;;;;;;11.67;100.00;101042.84;5204261;28;20056;-61
2022/06/09 03:29:21;;;;;;;12.13;6.57;;;;;;;11.61;100.00;101038.47;5204430;28;20215;-61
2022/06/09 03:31:52;;;;;;;11.85;8.07;;;;;;;11.66;100.00;101050.16;5187815;28;20037;-61
2022/06/09 03:34:22;;;;;;;17.98;8.30;;;;;;;11.63;100.00;101047.16;5203989;28;20026;-63
2022/06/09 03:36:53;;;;;;;17.27;8.48;;;;;;;11.60;100.00;101036.84;5204671;28;20450;-61
2022/06/09 03:39:23;;;;;;;11.82;8.48;;;;;;;11.67;100.00;101053.66;5204325;28;20026;-61
2022/06/09 03:41:54;;;;;;;12.95;8.00;;;;;;;11.58;100.00;101045.22;5205440;28;20340;-61
2022/06/09 03:44:24;;;;;;;11.15;6.97;;;;;;;11.66;100.00;101060.16;5203715;28;20035;-60
2022/06/09 03:46:55;;;;;;;29.67;8.57;;;;;;;11.66;100.00;101069.09;5204367;28;20481;-61
2022/06/09 03:49:25;;;;;;;10.80;7.38;;;;;;;11.70;100.00;101074.81;5204245;28;20025;-68
2022/06/09 03:51:56;;;;;;;22.35;9.40;;;;;;;11.67;100.00;101073.44;5204527;28;20403;-61
2022/06/09 03:54:26;;;;;;;10.68;7.65;;;;;;;11.71;100.00;101076.44;5204232;28;20054;-61
2022/06/09 03:56:57;;;;;;;16.23;7.35;;;;;;;11.72;100.00;101076.19;5204650;28;20026;-61
2022/06/09 03:59:27;;;;;;;13.93;8.90;;;;;;;11.60;100.00;101063.88;5204111;28;20072;-60
2022/06/09 04:01:58;;;;;;;14.02;10.45;;;;;;;11.74;100.00;101082.16;5204478;28;20112;-61
2022/06/09 04:04:28;;;;;;;15.35;7.25;;;;;;;11.69;100.00;101073.97;5203374;28;20026;-61
2022/06/09 04:06:59;;;;;;;12.18;7.20;;;;;;;11.83;100.00;101091.47;5203968;28;20037;-60
2022/06/09 04:09:29;;;;;;;9.90;6.32;;;;;;;11.84;100.00;101097.66;5202821;28;20052;-61
2022/06/09 04:12:00;;;;;;;20.48;8.07;;;;;;;11.84;100.00;101103.88;5204189;28;20022;-61
2022/06/09 04:14:30;;;;;;;23.10;7.65;;;;;;;11.87;100.00;101107.97;5207388;28;20087;-61
2022/06/09 04:17:01;;;;;;;8.63;7.32;;;;;;;11.85;100.00;101120.94;5207770;28;20021;-61
2022/06/09 04:19:31;;;;;;;15.82;7.43;;;;;;;11.92;100.00;101108.00;5207820;28;20111;-61
2022/06/09 04:22:02;;;;;;;15.90;7.53;;;;;;;11.88;100.00;101097.97;5208610;28;20022;-61
2022/06/09 04:24:33;;;;;;;14.30;7.20;;;;;;;12.04;100.00;101114.06;5206544;28;20461;-62
2022/06/09 04:27:04;;;;;;;18.20;8.30;;;;;;;12.07;100.00;101116.25;5207550;28;20493;-61
2022/06/09 04:29:35;;;;;;;11.55;6.28;;;;;;;12.06;100.00;101122.75;5207611;28;20041;-62
2022/06/09 04:32:06;;;;;;;20.38;10.75;;;;;;;12.03;100.00;101122.47;5203930;28;20032;-61
2022/06/09 04:34:36;;;;;;;17.67;8.25;;;;;;;12.05;100.00;101121.13;5218791;28;20026;-60
2022/06/09 04:37:07;;;;;;;20.77;10.80;;;;;;;12.09;100.00;101129.53;5186486;28;20030;-61
2022/06/09 04:39:37;;;;;;;26.80;11.25;;;;;;;12.13;100.00;101136.03;5187029;28;20026;-61
2022/06/09 04:42:08;;;;;;;19.30;8.48;;;;;;;12.41;100.00;101146.56;5192183;28;20052;-61
2022/06/09 04:44:39;;;;;;;18.17;8.95;;;;;;;12.55;100.00;101110.88;5206709;28;20021;-61
2022/06/09 04:47:09;;;;;;;15.68;8.27;;;;;;;12.95;100.00;101130.03;5206437;28;20056;-61
2022/06/09 04:49:40;;;;;;;13.27;6.50;;;;;;;13.26;100.00;101136.41;5220897;28;20100;-61
2022/06/09 04:52:10;;;;;;;14.98;6.63;;;;;;;13.53;100.00;101144.34;5208384;28;20386;-62
2022/06/09 04:54:40;;;;;;;11.82;7.65;;;;;;;13.55;100.00;101135.94;5206836;28;20028;-62
2022/06/09 04:57:11;;;;;;;7.78;7.05;;;;;;;13.67;100.00;101148.16;5206928;28;20080;-62
2022/06/09 04:59:41;;;;;;;13.73;7.03;;;;;;;13.74;100.00;101159.56;5207402;28;20042;-62
2022/06/09 05:02:12;;;;;;;13.38;7.20;;;;;;;13.79;100.00;101166.91;5206382;28;20082;-64
2022/06/09 05:04:42;;;;;;;15.07;8.85;;;;;;;13.83;100.00;101162.56;5206679;28;20025;-61
2022/06/09 05:07:13;;;;;;;15.38;6.63;;;;;;;13.83;100.00;101157.16;5207043;28;20071;-62
2022/06/09 05:09:44;;;;;;;18.95;5.93;;;;;;;13.94;100.00;101169.63;5206414;28;20056;-62
2022/06/09 05:12:14;;;;;;;12.45;6.45;;;;;;;13.94;100.00;101169.63;5222649;28;20472;-62
2022/06/09 05:14:45;;;;;;;15.45;9.80;;;;;;;13.99;100.00;101179.69;5206281;28;20473;-62
2022/06/09 05:17:15;;;;;;;14.45;7.20;;;;;;;13.97;100.00;101174.50;5206482;28;20021;-62
2022/06/09 05:19:46;;;;;;;16.50;8.00;;;;;;;14.02;100.00;101174.53;5206345;28;20017;-63
2022/06/09 05:22:17;;;;;;;20.52;8.55;;;;;;;14.01;100.00;101175.59;5206752;28;20108;-62
2022/06/09 05:24:48;;;;;;;10.70;6.88;;;;;;;14.06;100.00;101182.94;5198296;28;20176;-62
2022/06/09 05:27:18;;;;;;;16.23;6.25;;;;;;;14.07;100.00;101190.81;5200371;28;20037;-62
2022/06/09 05:29:48;;;;;;;9.57;6.38;;;;;;;14.06;100.00;101188.38;5206452;28;20116;-63
2022/06/09 05:32:19;;;;;;;11.60;6.72;;;;;;;14.09;100.00;101187.84;5205234;28;20068;-63
2022/06/09 05:34:50;;;;;;;8.30;5.15;;;;;;;14.12;100.00;101198.97;5206040;28;20025;-62
2022/06/09 05:37:20;;;;;;;12.18;7.05;;;;;;;13.77;100.00;101144.66;5205519;28;20032;-63
2022/06/09 05:45:29;;;;;;;9.30;6.40;;;;;;;14.34;100.00;101209.56;5204491;28;20048;-64
2022/06/09 05:47:59;;;;;;;7.15;4.85;;;;;;;14.33;100.00;101216.06;5206269;28;20033;-62
2022/06/09 05:50:29;;;;;;;22.60;5.22;;;;;;;14.37;100.00;101219.06;5206445;28;20067;-64
2022/06/09 05:53:00;;;;;;;14.07;5.75;;;;;;;14.46;100.00;101215.53;5206164;28;20032;-65
2022/06/09 05:55:31;;;;;;;6.80;5.97;;;;;;;14.55;100.00;101229.41;5206210;28;20375;-64
2022/06/09 05:58:01;;;;;;;13.50;7.72;;;;;;;14.64;100.00;101226.97;5205702;28;20025;-62
2022/06/09 06:00:32;;;;;;;17.40;5.97;;;;;;;14.69;100.00;101229.66;5205957;28;20398;-62
2022/06/09 06:03:03;;;;;;;7.10;6.28;;;;;;;14.79;100.00;101235.06;5205794;28;20053;-66
2022/06/09 06:08:23;;;;;;;16.80;7.38;;;;;;;14.93;100.00;101241.59;5207372;28;20056;-63
2022/06/09 06:10:53;;;;;;;7.45;5.63;;;;;;;15.08;100.00;101240.72;5205409;28;20108;-64
2022/06/09 06:13:24;;;;;;;13.95;6.28;;;;;;;15.22;100.00;101244.50;5205334;28;20021;-63
2022/06/09 06:15:55;;;;;;;10.68;5.68;;;;;;;15.44;100.00;101258.53;5205727;28;20029;-63
2022/06/09 06:18:27;;;;;;;10.88;5.55;;;;;;;15.68;100.00;101257.91;5205849;28;20021;-63
2022/06/09 06:20:58;;;;;;;6.35;4.97;;;;;;;15.83;100.00;101239.59;5205549;28;20025;-62
2022/06/09 06:23:28;;;;;;;17.63;7.25;;;;;;;16.20;100.00;101266.31;5204929;28;20048;-63
2022/06/09 06:25:59;;;;;;;9.57;6.00;;;;;;;16.54;100.00;101266.31;5205312;28;20045;-66
2022/06/09 06:28:30;;;;;;;8.88;6.13;;;;;;;16.92;100.00;101263.00;5205409;28;20026;-65
2022/06/09 06:31:01;;;;;;;14.30;7.13;;;;;;;17.31;100.00;101277.31;5205373;28;20082;-63
2022/06/09 06:33:31;;;;;;;9.20;3.72;;;;;;;17.67;100.00;101274.97;5204978;28;20087;-64
2022/06/09 06:36:02;;;;;;;5.50;4.95;;;;;;;18.01;100.00;101285.69;5206488;28;20034;-63
2022/06/09 06:38:33;;;;;;;6.88;4.85;;;;;;;17.99;100.00;101267.97;5205320;28;20073;-67
2022/06/09 06:41:05;;;;;;;14.88;5.32;;;;;;;18.18;100.00;101283.28;5205728;28;20122;-66
2022/06/09 06:43:36;;;;;;;10.75;7.22;;;;;;;18.57;100.00;101298.50;5205495;28;20032;-67
2022/06/09 06:46:07;;;;;;;15.45;5.30;;;;;;;18.48;100.00;101292.09;5200648;28;20041;-66
2022/06/09 06:48:38;;;;;;;15.05;5.57;;;;;;;18.37;100.00;101296.91;5205242;28;20184;-66
2022/06/09 06:51:09;;;;;;;8.43;6.10;;;;;;;18.22;100.00;101308.88;5205707;28;20167;-70
2022/06/09 06:53:40;;;;;;;15.85;8.02;;;;;;;18.07;100.00;101309.13;5206307;28;20021;-65
2022/06/09 06:56:10;;;;;;;13.63;5.88;;;;;;;18.20;100.00;101318.50;5222710;28;20033;-67
2022/06/09 06:58:42;;;;;;;7.30;6.70;;;;;;;18.31;100.00;101314.50;5222347;28;20065;-67
2022/06/09 07:01:13;;;;;;;12.18;10.02;;;;;;;18.08;100.00;101320.88;5205404;28;20045;-65
2022/06/09 07:03:43;;;;;;;11.20;10.20;;;;;;;17.96;100.00;101313.09;5205841;28;20025;-65
2022/06/09 07:06:15;;;;;;;10.80;9.30;;;;;;;18.13;100.00;101318.88;5188352;28;20080;-65
2022/06/09 07:08:46;;;;;;;17.48;12.40;;;;;;;18.56;100.00;101324.22;5204500;28;20133;-66
2022/06/09 07:11:16;;;;;;;17.65;14.23;;;;;;;19.10;100.00;101331.00;5204452;28;20373;-65
2022/06/09 07:13:47;;;;;;;10.80;9.15;;;;;;;19.34;100.00;101333.59;5204169;28;20112;-63
2022/06/09 07:16:18;;;;;;;14.55;11.68;;;;;;;19.33;100.00;101335.50;5204454;28;20025;-68
2022/06/09 07:18:48;;;;;;;17.75;14.20;;;;;;;19.48;100.00;101332.47;5221302;28;20030;-65
2022/06/09 07:21:19;;;;;;;17.42;15.68;;;;;;;19.40;100.00;101338.63;5205556;28;20029;-65
2022/06/09 07:23:50;;;;;;;12.35;11.10;;;;;;;19.15;100.00;101334.47;5204244;28;20068;-65
2022/06/09 07:26:21;;;;;;;13.40;12.18;;;;;;;19.10;100.00;101341.94;5204480;28;20029;-67
2022/06/09 07:28:51;;;;;;;12.38;10.10;;;;;;;19.00;100.00;101344.88;5205941;28;20025;-65
2022/06/09 07:31:22;;;;;;;19.95;12.93;;;;;;;18.98;100.00;101342.44;5202824;28;20033;-65
2022/06/09 07:33:52;;;;;;;15.00;10.85;;;;;;;19.20;100.00;101347.25;5205073;28;20032;-64
2022/06/09 07:36:25;;;;;;;12.43;11.05;;;;;;;19.77;100.00;101356.84;5205456;28;20029;-66
2022/06/09 07:38:56;;;;;;;15.55;10.45;;;;;;;19.75;100.00;101355.53;5219706;28;20025;-67
2022/06/09 07:41:26;;;;;;;11.82;9.45;;;;;;;19.75;100.00;101366.47;5194161;28;20040;-65
2022/06/09 07:44:08;;;;;;;12.50;11.43;;;;;;;19.85;100.00;101358.06;5196557;28;20028;-65
2022/06/09 07:46:41;;;;;;;12.52;11.07;;;;;;;19.95;100.00;101346.06;5198058;28;20493;-65
2022/06/09 07:49:12;;;;;;;11.13;9.65;;;;;;;19.81;100.00;101357.03;5206668;28;20027;-69
2022/06/09 07:51:43;;;;;;;12.52;10.07;;;;;;;19.42;100.00;101355.59;5210252;28;20537;-66
2022/06/09 07:54:15;;;;;;;13.18;11.98;;;;;;;19.46;100.00;101362.09;5210106;28;20382;-65
2022/06/09 07:56:46;;;;;;;10.32;9.40;;;;;;;19.81;100.00;101370.75;5208458;28;20040;-64
2022/06/09 07:59:17;;;;;;;11.90;11.00;;;;;;;20.24;100.00;101372.00;5208559;28;20489;-65
2022/06/09 08:01:48;;;;;;;9.98;9.10;;;;;;;20.59;100.00;101368.78;5209752;28;20033;-64
2022/06/09 08:04:22;;;;;;;11.63;10.90;;;;;;;21.01;100.00;101356.47;5191940;28;20029;-66
2022/06/09 08:06:54;;;;;;;10.80;9.70;;;;;;;21.35;100.00;101377.88;5209214;28;20397;-66
2022/06/09 08:09:24;;;;;;;13.02;10.30;;;;;;;21.77;100.00;101365.41;5207002;28;20466;-66
2022/06/09 08:11:58;;;;;;;16.67;11.10;;;;;;;21.99;100.00;101373.53;5207985;28;20053;-68
2022/06/09 08:14:29;;;;;;;12.20;11.20;;;;;;;21.97;100.00;101367.56;5209423;28;20432;-67
2022/06/09 08:17:00;;;;;;;17.73;10.57;;;;;;;22.14;100.00;101362.13;5209894;28;20032;-68
2022/06/09 08:19:31;;;;;;;11.55;10.45;;;;;;;22.07;100.00;101363.72;5209658;28;20025;-66
2022/06/09 08:22:02;;;;;;;11.57;10.48;;;;;;;21.62;100.00;101372.16;5208256;28;20025;-67
2022/06/09 08:24:34;;;;;;;10.52;9.40;;;;;;;21.25;100.00;101373.44;5191881;28;20528;-67
2022/06/09 08:27:06;;;;;;;9.43;8.48;;;;;;;20.96;100.00;101376.63;5208649;28;20090;-66
2022/06/09 08:29:37;;;;;;;11.43;10.40;;;;;;;20.65;100.00;101381.25;5208790;28;20120;-67
2022/06/09 08:32:08;;;;;;;16.65;12.00;;;;;;;20.38;100.00;101376.69;5187035;23;20136;-63
2022/06/09 08:35:19;;;;;;;12.10;9.70;;;;;;;20.28;100.00;101399.63;5206009;28;20108;-63
2022/06/09 08:37:51;;;;;;;11.23;10.20;;;;;;;20.27;100.00;101397.19;5205639;28;20033;-62
2022/06/09 08:40:39;;;;;;;13.00;11.98;;;;;;;20.13;100.00;101409.00;5205563;28;20021;-62
2022/06/09 08:43:57;;;;;;;10.05;8.23;;;;;;;19.23;100.00;101413.19;5205577;28;20041;-62
2022/06/09 08:46:30;;;;;;;13.63;12.48;;;;;;;17.89;100.00;101438.34;5143610;28;20090;-60
2022/06/09 08:49:04;;;;;;;11.20;10.40;;;;;;;17.02;100.00;101440.25;5127376;28;20500;-59
2022/06/09 08:51:42;;;;;;;10.95;9.02;;;;;;;16.59;100.00;101450.06;5187480;28;20037;-59
2022/06/09 08:54:40;;;;;;;10.23;9.57;;;;;;;16.28;100.00;101449.41;5205487;28;20057;-63
2022/06/09 08:57:25;;;;;;;9.88;9.15;;;;;;;15.98;100.00;101451.16;5202244;28;20029;-58
2022/06/09 08:59:58;;;;;;;9.38;8.88;;;;;;;15.57;100.00;101423.22;5203627;28;20044;-60
2022/06/09 09:02:36;;;;;;;12.02;10.90;;;;;;;15.72;100.00;101449.59;5205232;28;20022;-63
2022/06/09 09:05:15;;;;;;;10.23;9.63;;;;;;;15.88;100.00;101453.13;5205319;28;20032;-60
2022/06/09 09:07:49;;;;;;;10.88;9.85;;;;;;;16.15;100.00;101448.94;5206514;28;20029;-62
2022/06/09 09:11:01;;;;;;;10.10;9.30;;;;;;;16.49;100.00;101450.91;5205422;28;20037;-59
2022/06/09 09:13:59;;;;;;;12.60;11.55;;;;;;;16.87;100.00;101458.34;5178205;28;20037;-60
2022/06/09 09:16:33;;;;;;;17.30;11.18;;;;;;;17.21;100.00;101446.66;5201991;28;20485;-61
2022/06/09 09:19:45;;;;;;;11.65;9.30;;;;;;;17.46;100.00;101451.88;5205359;28;20033;-62
2022/06/09 09:22:31;;;;;;;15.43;9.57;;;;;;;17.63;100.00;101450.59;5229287;23;20044;-62
2022/06/09 09:25:41;;;;;;;9.45;8.68;;;;;;;17.94;100.00;101454.66;5224571;28;20113;-62
2022/06/09 09:28:21;;;;;;;14.27;10.60;;;;;;;18.28;100.00;101451.81;5242823;28;20032;-63
2022/06/09 09:30:55;;;;;;;11.98;10.05;;;;;;;18.38;100.00;101453.59;5243361;28;20120;-64
2022/06/09 09:33:26;;;;;;;10.65;8.82;;;;;;;18.75;100.00;101459.13;5224765;28;20032;-62
2022/06/09 09:36:05;;;;;;;8.15;7.40;;;;;;;18.89;100.00;101429.88;5242575;28;20025;-62
2022/06/09 09:38:42;;;;;;;10.73;7.32;;;;;;;19.57;100.00;101460.56;5226365;28;20513;-62
2022/06/09 09:41:37;;;;;;;9.20;8.27;;;;;;;20.06;100.00;101448.91;5226180;28;20028;-60
2022/06/09 09:44:18;;;;;;;6.80;6.20;;;;;;;20.46;100.00;101471.97;5225771;28;20036;-61
2022/06/09 09:46:55;;;;;;;6.53;6.03;;;;;;;20.63;100.00;101452.91;5226204;28;20108;-62
2022/06/09 09:49:43;;;;;;;5.65;5.10;;;;;;;20.79;100.00;101443.19;5226955;28;20028;-62
2022/06/09 09:52:29;;;;;;;5.00;4.68;;;;;;;20.88;100.00;101485.25;5225906;28;20032;-64
2022/06/09 09:55:00;;;;;;;3.90;3.67;;;;;;;20.89;100.00;101495.13;5226518;28;20024;-62
2022/06/09 09:57:30;;;;;;;2.75;2.65;;;;;;;20.58;100.00;101496.94;5227007;28;20511;-62
2022/06/09 10:00:01;;;;;;;2.38;2.28;;;;;;;20.47;100.00;101501.84;5241491;28;20029;-63
2022/06/09 10:16:55;;;;;;;3.25;2.88;;;;;;;21.28;100.00;101534.09;1101199;22;20304;-64
2022/06/09 10:19:30;;;;;;;2.50;2.40;;;;;;;21.55;100.00;101537.53;5204206;28;20027;-64
2022/06/09 10:22:15;;;;;;;2.65;2.45;;;;;;;22.03;100.00;101534.09;5221501;28;20112;-64
2022/06/09 10:24:54;;;;;;;4.55;4.05;;;;;;;22.68;100.00;101532.50;5204057;28;20122;-64
2022/06/09 10:27:32;;;;;;;3.40;3.10;;;;;;;22.08;100.00;101547.72;5204541;28;20030;-64
2022/06/09 10:30:02;;;;;;;1.98;1.83;;;;;;;21.47;100.00;101553.94;5204582;28;20108;-64
2022/06/09 10:32:47;;;;;;;5.18;2.10;;;;;;;21.73;100.00;101554.09;5204501;28;20188;-64
2022/06/09 10:36:01;;;;;;;7.38;4.03;;;;;;;21.97;100.00;101554.56;5204011;28;20084;-65
2022/06/09 10:38:47;;;;;;;4.35;2.95;;;;;;;22.64;100.00;101546.09;5146112;28;20101;-65
2022/06/09 10:41:47;;;;;;;3.63;3.38;;;;;;;23.03;100.00;101553.50;5162664;28;20030;-64
2022/06/09 10:44:41;;;;;;;5.18;3.72;;;;;;;22.74;100.00;101550.50;5192092;28;20493;-64
2022/06/09 10:57:01;;;;;;;8.18;3.45;;;;;;;23.79;100.00;101550.19;5205609;28;20139;-64
2022/06/09 10:59:48;;;;;;;4.22;3.83;;;;;;;23.46;100.00;101550.72;5204059;28;20022;-64
2022/06/09 11:02:21;;;;;;;6.05;4.05;;;;;;;23.10;100.00;101547.50;5203941;28;20116;-64
2022/06/09 11:04:53;;;;;;;4.00;3.78;;;;;;;22.82;100.00;101545.03;5204769;28;20099;-65
2022/06/09 11:08:08;;;;;;;4.40;4.03;;;;;;;22.49;100.00;101560.34;5203603;28;20030;-64
2022/06/09 11:10:55;;;;;;;5.90;3.70;;;;;;;21.59;100.00;101561.63;5203598;28;20018;-65
2022/06/09 11:14:02;;;;;;;5.30;4.78;;;;;;;21.38;100.00;101559.38;5203287;28;20468;-65
2022/06/09 11:17:02;;;;;;;5.28;3.42;;;;;;;21.27;100.00;101569.00;5203419;28;20029;-65
2022/06/09 11:19:48;;;;;;;4.13;3.63;;;;;;;21.04;100.00;101572.81;5150595;28;20136;-64
2022/06/09 11:22:54;;;;;;;4.18;3.88;;;;;;;21.07;100.00;101570.25;5202828;28;20030;-65
2022/06/09 11:25:43;;;;;;;4.03;3.33;;;;;;;21.07;100.00;101563.94;5141260;28;20412;-64
2022/06/09 11:29:01;;;;;;;4.18;3.78;;;;;;;21.09;100.00;101567.16;5202006;28;20033;-64
2022/06/09 11:32:00;;;;;;;3.42;3.20;;;;;;;20.80;100.00;101562.84;5190651;28;20030;-64
2022/06/09 11:34:52;;;;;;;3.72;2.85;;;;;;;20.92;100.00;101562.34;5203487;28;20025;-65
2022/06/09 11:37:32;;;;;;;2.67;2.53;;;;;;;21.07;100.00;101570.25;5203817;28;20550;-65
2022/06/09 11:40:11;;;;;;;7.60;4.00;;;;;;;21.17;100.00;101566.44;5203708;28;20032;-65
2022/06/09 11:43:00;;;;;;;5.32;3.22;;;;;;;21.30;100.00;101570.31;5203891;28;20034;-65
2022/06/09 11:45:37;;;;;;;2.58;2.40;;;;;;;21.54;100.00;101579.88;5203687;28;20034;-64
2022/06/09 11:48:18;;;;;;;4.72;2.95;;;;;;;21.47;100.00;101579.50;5203687;28;20033;-64
2022/06/09 11:50:50;;;;;;;3.17;2.97;;;;;;;21.66;100.00;101575.72;5203482;28;20025;-64
2022/06/09 11:53:28;;;;;;;4.15;3.78;;;;;;;21.43;100.00;101577.66;5203553;28;20477;-65
2022/06/09 11:56:45;;;;;;;2.97;2.80;;;;;;;21.10;100.00;101582.53;5203439;28;20494;-65
2022/06/09 11:59:17;;;;;;;5.35;3.08;;;;;;;20.89;100.00;101584.91;5203745;28;20496;-64
2022/06/09 12:02:50;;;;;;;3.22;2.75;;;;;;;20.65;100.00;101596.13;5203632;28;20528;-65
2022/06/09 12:05:27;;;;;;;2.53;2.15;;;;;;;20.65;100.00;101596.13;5158792;28;20052;-64
2022/06/09 12:08:04;;;;;;;2.70;2.60;;;;;;;20.47;100.00;101595.13;5203388;28;20497;-65
2022/06/09 12:10:56;;;;;;;3.45;2.45;;;;;;;20.44;100.00;101594.94;5203528;28;20145;-65
2022/06/09 12:13:45;;;;;;;3.90;3.63;;;;;;;20.82;100.00;101603.72;5203217;28;20032;-64
2022/06/09 12:16:25;;;;;;;3.28;2.95;;;;;;;21.32;100.00;101596.34;5201824;28;20053;-65
2022/06/09 12:19:14;;;;;;;4.57;2.58;;;;;;;21.50;100.00;101603.59;5202544;28;20033;-64
2022/06/09 12:21:51;;;;;;;5.82;4.80;;;;;;;21.83;100.00;101604.16;5202875;28;20029;-64
2022/06/09 12:24:56;;;;;;;2.95;2.75;;;;;;;22.08;100.00;101608.22;5202438;28;20026;-64
2022/06/09 12:27:35;;;;;;;6.82;4.57;;;;;;;22.40;100.00;101606.28;5202682;28;20029;-64